Time;durP1;ratioP1;P1;durP2;ratioP2;P2;SDS_P1;SDS_P2;PMS_P1;PMS_P2;Temp;Humidity;BMP_temperature;BMP_pressure;BME280_temperature;BME280_humidity;BME280_pressure;Samples;Min_cycle;Max_cycle;Signal;HPM_P1;HPM_P2
2022/10/02 00:00:50;;;;;;;4.38;1.92;;;18.90;99.90;;;;;;4148367;28;20237;-74
2022/10/02 00:02:57;;;;;;;4.13;1.65;;;18.80;99.90;;;;;;4148761;28;20256;-74
2022/10/02 00:05:04;;;;;;;6.13;1.95;;;18.90;99.90;;;;;;4147600;28;20643;-74
2022/10/02 00:07:09;;;;;;;5.05;2.03;;;18.90;99.90;;;;;;4142493;28;20270;-74
2022/10/02 00:09:19;;;;;;;5.43;1.90;;;18.90;99.90;;;;;;4147896;28;20236;-74
2022/10/02 00:11:24;;;;;;;5.32;1.92;;;18.90;99.90;;;;;;4148365;28;20251;-74
2022/10/02 00:13:33;;;;;;;5.05;1.85;;;18.90;99.90;;;;;;4148337;28;20582;-74
2022/10/02 00:15:41;;;;;;;5.18;2.25;;;18.90;99.90;;;;;;4148682;28;20736;-74
2022/10/02 00:17:47;;;;;;;5.03;2.00;;;18.90;99.90;;;;;;4137726;28;20220;-74
2022/10/02 00:19:53;;;;;;;7.22;2.28;;;18.90;99.90;;;;;;4148657;28;20237;-74
2022/10/02 00:22:12;;;;;;;5.35;2.13;;;18.90;99.90;;;;;;4147668;28;20224;-74
2022/10/02 00:24:17;;;;;;;6.32;2.10;;;18.90;99.90;;;;;;4141561;28;20217;-74
2022/10/02 00:26:24;;;;;;;5.10;2.08;;;18.90;99.90;;;;;;4147947;28;20216;-74
2022/10/02 00:28:31;;;;;;;5.38;1.90;;;18.90;99.90;;;;;;4147918;28;20255;-74
2022/10/02 00:30:41;;;;;;;4.78;1.92;;;18.90;99.90;;;;;;4148020;28;20655;-74
2022/10/02 00:33:02;;;;;;;3.88;1.80;;;18.90;99.90;;;;;;4148115;28;20221;-74
2022/10/02 00:35:40;;;;;;;6.78;2.33;;;18.80;99.90;;;;;;4148157;28;20267;-74
2022/10/02 00:37:50;;;;;;;4.47;1.70;;;18.90;99.90;;;;;;4148036;28;20245;-74
2022/10/02 00:40:01;;;;;;;4.32;1.77;;;18.90;99.90;;;;;;4147340;28;20639;-74
2022/10/02 00:42:39;;;;;;;4.28;1.60;;;18.90;99.90;;;;;;4146454;28;20244;-74
2022/10/02 00:44:51;;;;;;;4.63;1.80;;;18.90;99.90;;;;;;4140855;28;20225;-74
2022/10/02 00:47:01;;;;;;;7.18;2.28;;;18.90;99.90;;;;;;4146425;28;20216;-74
2022/10/02 00:49:29;;;;;;;5.40;2.10;;;18.80;99.90;;;;;;4147759;28;20224;-74
2022/10/02 00:51:44;;;;;;;5.20;2.25;;;18.90;99.90;;;;;;4137492;28;20577;-74
2022/10/02 00:53:56;;;;;;;6.30;2.03;;;18.90;99.90;;;;;;4146648;28;20217;-74
2022/10/02 00:56:11;;;;;;;3.20;1.75;;;18.80;99.90;;;;;;4145500;28;20213;-74
2022/10/02 00:58:37;;;;;;;5.32;2.25;;;18.90;99.90;;;;;;4145456;28;20210;-74
2022/10/02 01:00:41;;;;;;;4.32;1.50;;;18.90;99.90;;;;;;4146339;28;20233;-74
2022/10/02 01:02:56;;;;;;;4.80;1.88;;;18.90;99.90;;;;;;4146679;28;20267;-74
2022/10/02 01:05:00;;;;;;;3.75;1.90;;;18.90;99.90;;;;;;4146616;28;20288;-74
2022/10/02 01:07:04;;;;;;;3.90;1.77;;;18.90;99.90;;;;;;4146929;28;20673;-74
2022/10/02 01:09:07;;;;;;;5.38;2.25;;;18.90;99.90;;;;;;4146266;28;20224;-74
2022/10/02 01:11:10;;;;;;;4.90;2.10;;;18.90;99.90;;;;;;4146928;28;20621;-74
2022/10/02 01:13:12;;;;;;;7.00;2.40;;;18.90;99.90;;;;;;4144947;28;20217;-74
2022/10/02 01:15:17;;;;;;;3.75;1.85;;;18.90;99.90;;;;;;4145148;28;20607;-74
2022/10/02 01:17:23;;;;;;;4.30;1.98;;;18.90;99.90;;;;;;4145867;28;20217;-74
2022/10/02 01:19:33;;;;;;;4.70;1.65;;;18.90;99.90;;;;;;4146698;28;20229;-74
2022/10/02 01:21:42;;;;;;;3.47;1.85;;;18.90;99.90;;;;;;4146641;28;20236;-74
2022/10/02 01:23:49;;;;;;;5.60;1.88;;;18.90;99.90;;;;;;4146329;28;20262;-74
2022/10/02 01:25:52;;;;;;;6.32;2.40;;;18.90;99.90;;;;;;4145663;28;20217;-74
2022/10/02 01:27:55;;;;;;;5.15;1.80;;;18.90;99.90;;;;;;4145960;28;20286;-73
2022/10/02 01:30:01;;;;;;;5.85;2.05;;;18.90;99.90;;;;;;4146836;28;20816;-71
2022/10/02 01:32:03;;;;;;;7.78;2.40;;;18.80;99.90;;;;;;4146638;28;20252;-74
2022/10/02 01:34:06;;;;;;;7.40;2.20;;;18.90;99.90;;;;;;4147433;28;20275;-73
2022/10/02 01:36:09;;;;;;;5.55;2.03;;;18.90;99.90;;;;;;4147495;28;20259;-74
2022/10/02 01:38:16;;;;;;;6.38;2.22;;;18.90;99.90;;;;;;4143757;28;20213;-74
2022/10/02 01:40:27;;;;;;;4.18;1.90;;;18.90;99.90;;;;;;4146101;28;20251;-74
2022/10/02 01:42:31;;;;;;;6.18;2.40;;;18.90;99.90;;;;;;4145979;28;20236;-74
2022/10/02 01:44:34;;;;;;;5.32;2.03;;;18.90;99.90;;;;;;4146210;28;20225;-74
2022/10/02 01:46:45;;;;;;;6.40;1.92;;;18.90;99.90;;;;;;4145357;28;20229;-74
2022/10/02 01:48:55;;;;;;;6.70;2.30;;;18.90;99.90;;;;;;4145913;28;20221;-73
2022/10/02 01:51:10;;;;;;;6.28;2.35;;;18.90;99.90;;;;;;4145547;28;20231;-74
2022/10/02 01:53:22;;;;;;;7.05;2.22;;;18.90;99.90;;;;;;4129250;28;20222;-74
2022/10/02 01:55:36;;;;;;;5.22;1.85;;;18.90;99.90;;;;;;4128518;28;20273;-74
2022/10/02 01:57:54;;;;;;;10.65;2.38;;;18.90;99.90;;;;;;4126483;28;20218;-74
2022/10/02 02:00:06;;;;;;;5.75;2.10;;;18.90;99.90;;;;;;4129459;28;20663;-74
2022/10/02 02:02:16;;;;;;;6.80;2.13;;;18.90;99.90;;;;;;4130007;28;20662;-74
2022/10/02 02:04:24;;;;;;;6.00;2.13;;;18.90;99.90;;;;;;4130077;28;20217;-74
2022/10/02 02:06:31;;;;;;;4.43;1.90;;;18.90;99.90;;;;;;4129582;28;20221;-74
2022/10/02 02:08:39;;;;;;;5.13;2.22;;;18.90;99.90;;;;;;4130921;28;20280;-74
2022/10/02 02:10:51;;;;;;;6.22;2.40;;;18.90;99.90;;;;;;4130441;28;20212;-74
2022/10/02 02:13:00;;;;;;;7.45;2.20;;;18.90;99.90;;;;;;4128982;28;20225;-74
2022/10/02 02:15:09;;;;;;;4.97;1.98;;;18.90;99.90;;;;;;4130883;28;20265;-74
2022/10/02 02:17:15;;;;;;;7.25;2.33;;;18.90;99.90;;;;;;4127323;28;20225;-73
2022/10/02 02:19:22;;;;;;;7.68;2.13;;;18.90;99.90;;;;;;4117795;28;20225;-74
2022/10/02 02:21:29;;;;;;;4.95;2.35;;;18.80;99.90;;;;;;4129798;28;20233;-74
2022/10/02 02:23:34;;;;;;;5.88;2.03;;;18.90;99.90;;;;;;4127891;28;20209;-74
2022/10/02 02:25:40;;;;;;;5.85;2.20;;;18.90;99.90;;;;;;4130658;28;20663;-74
2022/10/02 02:27:47;;;;;;;6.63;2.10;;;18.90;99.90;;;;;;4130678;28;20284;-74
2022/10/02 02:29:55;;;;;;;7.30;2.20;;;18.90;99.90;;;;;;4130714;28;20268;-73
2022/10/02 02:32:00;;;;;;;6.55;2.10;;;18.90;99.90;;;;;;4130231;28;20275;-74
2022/10/02 02:34:06;;;;;;;4.82;2.20;;;18.90;99.90;;;;;;4130669;28;20627;-74
2022/10/02 02:36:12;;;;;;;4.95;1.88;;;18.90;99.90;;;;;;4131030;28;20275;-74
2022/10/02 02:38:20;;;;;;;6.18;2.10;;;18.90;99.90;;;;;;4129250;28;20260;-74
2022/10/02 02:40:27;;;;;;;5.30;2.13;;;18.90;99.90;;;;;;4127348;28;20217;-74
2022/10/02 02:42:32;;;;;;;6.30;2.00;;;18.90;99.90;;;;;;4130616;28;20218;-74
2022/10/02 02:44:40;;;;;;;5.85;1.98;;;18.90;99.90;;;;;;4131004;28;20658;-74
2022/10/02 02:47:03;;;;;;;4.45;1.92;;;18.90;99.90;;;;;;4130673;28;20404;-74
2022/10/02 02:49:11;;;;;;;7.22;1.98;;;18.80;99.90;;;;;;4130756;28;20272;-74
2022/10/02 02:51:16;;;;;;;4.45;1.75;;;18.90;99.90;;;;;;4128478;28;20248;-74
2022/10/02 02:53:23;;;;;;;4.82;1.88;;;18.90;99.90;;;;;;4146037;28;20311;-74
2022/10/02 02:55:32;;;;;;;4.72;2.20;;;18.80;99.90;;;;;;4145531;28;20275;-74
2022/10/02 02:57:41;;;;;;;5.18;2.25;;;18.80;99.90;;;;;;4142742;28;20255;-74
2022/10/02 02:59:49;;;;;;;7.00;2.13;;;18.80;99.90;;;;;;4149100;28;20678;-74
2022/10/02 03:01:52;;;;;;;3.45;1.88;;;18.90;99.90;;;;;;4149681;28;20744;-74
2022/10/02 03:03:55;;;;;;;5.65;2.28;;;18.80;99.90;;;;;;4149268;28;20285;-74
2022/10/02 03:06:03;;;;;;;5.65;1.80;;;18.90;99.90;;;;;;4150088;28;20212;-73
2022/10/02 03:08:13;;;;;;;5.25;2.03;;;18.80;99.90;;;;;;4132858;28;20213;-74
2022/10/02 03:10:20;;;;;;;5.05;1.88;;;18.80;99.90;;;;;;4148447;28;20275;-74
2022/10/02 03:12:33;;;;;;;6.65;2.13;;;18.80;99.90;;;;;;4143174;28;20669;-74
2022/10/02 03:14:49;;;;;;;4.35;1.98;;;18.90;99.90;;;;;;4140401;28;20225;-73
2022/10/02 03:17:02;;;;;;;4.30;1.92;;;18.90;99.90;;;;;;4147051;28;20213;-74
2022/10/02 03:19:19;;;;;;;6.47;2.40;;;18.90;99.90;;;;;;4146736;28;20287;-74
2022/10/02 03:21:28;;;;;;;6.00;2.17;;;18.90;99.90;;;;;;4145917;28;20275;-74
2022/10/02 03:23:36;;;;;;;4.10;1.80;;;18.80;99.90;;;;;;4147058;28;20220;-73
2022/10/02 03:25:42;;;;;;;4.85;1.92;;;18.90;99.90;;;;;;4148224;28;20654;-74
2022/10/02 03:27:52;;;;;;;6.68;1.90;;;18.80;99.90;;;;;;4147636;28;20221;-74
2022/10/02 03:30:00;;;;;;;5.65;2.33;;;18.90;99.90;;;;;;4146497;28;20212;-73
2022/10/02 03:32:05;;;;;;;5.45;1.90;;;18.80;99.90;;;;;;4147558;28;20204;-74
2022/10/02 03:34:08;;;;;;;6.05;2.13;;;18.80;99.90;;;;;;4147683;28;20259;-74
2022/10/02 03:36:11;;;;;;;6.70;2.30;;;18.80;99.90;;;;;;4148100;28;20213;-73
2022/10/02 03:38:15;;;;;;;7.10;2.28;;;18.90;99.90;;;;;;4145219;28;20212;-73
2022/10/02 03:40:21;;;;;;;5.55;2.00;;;18.80;99.90;;;;;;4141022;28;20210;-74
2022/10/02 03:42:25;;;;;;;3.83;2.17;;;18.90;99.90;;;;;;4147697;28;20287;-73
2022/10/02 03:44:28;;;;;;;4.40;1.83;;;18.80;99.90;;;;;;4147354;28;20627;-74
2022/10/02 03:46:30;;;;;;;6.35;2.30;;;18.90;99.90;;;;;;4144603;28;20213;-74
2022/10/02 03:48:34;;;;;;;5.07;1.90;;;18.80;99.90;;;;;;4144650;28;20212;-74
2022/10/02 03:50:36;;;;;;;5.47;1.95;;;18.80;99.90;;;;;;4147770;28;20272;-73
2022/10/02 03:52:38;;;;;;;5.65;2.38;;;18.80;99.90;;;;;;4147357;28;20225;-73
2022/10/02 03:54:41;;;;;;;6.07;2.10;;;18.90;99.90;;;;;;4138912;28;20221;-73
2022/10/02 03:56:50;;;;;;;5.55;1.67;;;18.90;99.90;;;;;;4147516;28;20222;-74
2022/10/02 03:58:57;;;;;;;5.45;2.15;;;18.80;99.90;;;;;;4147526;28;20217;-74
2022/10/02 04:01:04;;;;;;;5.25;1.88;;;18.80;99.90;;;;;;4144567;28;20349;-73
2022/10/02 04:03:14;;;;;;;5.40;2.00;;;18.90;99.90;;;;;;4136297;28;20356;-74
2022/10/02 04:05:22;;;;;;;5.63;2.08;;;18.80;99.90;;;;;;4145896;28;20278;-73
2022/10/02 04:07:30;;;;;;;3.97;1.60;;;18.90;99.90;;;;;;4147668;28;20263;-73
2022/10/02 04:09:40;;;;;;;6.57;2.20;;;18.80;99.90;;;;;;4146661;28;20224;-73
2022/10/02 04:11:48;;;;;;;4.25;1.70;;;18.80;99.90;;;;;;4146641;28;20259;-74
2022/10/02 04:13:59;;;;;;;4.60;2.00;;;18.80;99.90;;;;;;4147018;28;20217;-73
2022/10/02 04:16:08;;;;;;;6.85;2.17;;;18.80;99.90;;;;;;4147296;28;20275;-73
2022/10/02 04:18:17;;;;;;;5.70;1.88;;;18.80;99.90;;;;;;4144256;28;20216;-74
2022/10/02 04:20:26;;;;;;;4.10;1.80;;;18.80;99.90;;;;;;4143589;28;20212;-73
2022/10/02 04:22:36;;;;;;;6.13;2.20;;;18.80;99.90;;;;;;4140095;28;20751;-74
2022/10/02 04:24:44;;;;;;;5.07;1.98;;;18.80;99.90;;;;;;4144894;28;20287;-74
2022/10/02 04:26:54;;;;;;;5.18;1.90;;;18.80;99.90;;;;;;4147280;28;20243;-73
2022/10/02 04:29:05;;;;;;;5.30;2.40;;;18.80;99.90;;;;;;4144714;28;20225;-74
2022/10/02 04:31:12;;;;;;;4.90;1.88;;;18.80;99.90;;;;;;4146946;28;20224;-73
2022/10/02 04:33:18;;;;;;;4.57;1.95;;;18.80;99.90;;;;;;4146861;28;20609;-73
2022/10/02 04:35:29;;;;;;;5.32;2.28;;;18.80;99.90;;;;;;4145250;28;20220;-74
2022/10/02 04:37:45;;;;;;;4.90;1.83;;;18.90;99.90;;;;;;4144873;28;20271;-73
2022/10/02 04:40:05;;;;;;;3.95;1.65;;;18.90;99.90;;;;;;4147083;28;20624;-73
2022/10/02 04:42:18;;;;;;;7.05;2.17;;;18.80;99.90;;;;;;4147711;28;20775;-73
2022/10/02 04:44:36;;;;;;;5.18;1.80;;;18.80;99.90;;;;;;4147735;28;20260;-73
2022/10/02 04:46:59;;;;;;;3.88;2.00;;;18.90;99.90;;;;;;4147450;28;20225;-73
2022/10/02 04:49:25;;;;;;;3.70;1.77;;;18.80;99.90;;;;;;4145245;28;20233;-72
2022/10/02 04:51:39;;;;;;;4.95;1.95;;;18.80;99.90;;;;;;4142871;28;20245;-73
2022/10/02 04:53:56;;;;;;;5.05;2.00;;;18.80;99.90;;;;;;4146177;28;20267;-73
2022/10/02 04:56:28;;;;;;;4.78;1.85;;;18.80;99.90;;;;;;4146272;28;20205;-73
2022/10/02 04:58:42;;;;;;;6.72;2.08;;;18.80;99.90;;;;;;4130150;28;20233;-73
2022/10/02 05:00:48;;;;;;;4.40;1.75;;;18.80;99.90;;;;;;4144961;28;20667;-73
2022/10/02 05:03:05;;;;;;;5.90;2.00;;;18.80;99.90;;;;;;4145564;28;20240;-73
2022/10/02 05:05:28;;;;;;;6.75;2.17;;;18.90;99.90;;;;;;4145971;28;20568;-73
2022/10/02 05:07:45;;;;;;;5.25;2.10;;;18.80;99.90;;;;;;4145327;28;20260;-74
2022/10/02 05:09:57;;;;;;;4.40;1.90;;;18.80;99.90;;;;;;4145042;28;20213;-74
2022/10/02 05:12:26;;;;;;;5.00;2.15;;;18.80;99.90;;;;;;4146306;28;20260;-74
2022/10/02 05:15:13;;;;;;;5.82;2.15;;;18.80;99.90;;;;;;4145873;28;20221;-74
2022/10/02 05:17:40;;;;;;;5.72;2.00;;;18.80;99.90;;;;;;4088129;28;20223;-74
2022/10/02 05:19:59;;;;;;;5.18;2.00;;;18.80;99.90;;;;;;4135512;28;20221;-74
2022/10/02 05:22:23;;;;;;;5.53;2.22;;;18.80;99.90;;;;;;4144237;28;20287;-73
2022/10/02 05:24:46;;;;;;;4.18;1.75;;;18.80;99.90;;;;;;4144742;28;20216;-73
2022/10/02 05:27:01;;;;;;;5.20;1.90;;;18.80;99.90;;;;;;4144549;28;20225;-73
2022/10/02 05:29:38;;;;;;;5.07;2.00;;;18.80;99.90;;;;;;4133862;28;20277;-72
2022/10/02 05:31:57;;;;;;;4.55;2.00;;;18.80;99.90;;;;;;4135203;28;20225;-74
2022/10/02 05:34:13;;;;;;;2.85;1.50;;;18.80;99.90;;;;;;4139129;28;20213;-74
2022/10/02 05:36:37;;;;;;;4.43;1.70;;;18.80;99.90;;;;;;4139795;28;20271;-73
2022/10/02 05:39:07;;;;;;;3.58;1.60;;;18.80;99.90;;;;;;4138394;28;21527;-74
2022/10/02 05:41:18;;;;;;;4.50;1.80;;;18.80;99.90;;;;;;4144108;28;20286;-73
2022/10/02 05:43:29;;;;;;;4.57;2.00;;;18.80;99.90;;;;;;4145336;28;20352;-73
2022/10/02 05:45:37;;;;;;;4.55;2.10;;;18.80;99.90;;;;;;4143804;28;20275;-74
2022/10/02 05:47:43;;;;;;;4.00;1.70;;;18.80;99.90;;;;;;4140290;28;20846;-73
2022/10/02 05:49:51;;;;;;;4.25;2.00;;;18.80;99.90;;;;;;4140498;28;20268;-73
2022/10/02 05:51:58;;;;;;;4.97;1.90;;;18.80;99.90;;;;;;4144612;28;20290;-73
2022/10/02 05:54:06;;;;;;;5.25;1.83;;;18.80;99.90;;;;;;4138737;28;20257;-73
2022/10/02 05:56:16;;;;;;;6.43;2.08;;;18.80;99.90;;;;;;4130794;28;20213;-73
2022/10/02 05:58:30;;;;;;;3.88;1.77;;;18.80;99.90;;;;;;4143006;28;20216;-73
2022/10/02 06:00:38;;;;;;;4.10;2.03;;;18.80;99.90;;;;;;4141435;28;20244;-73
2022/10/02 06:02:49;;;;;;;6.70;2.40;;;18.80;99.90;;;;;;4145069;28;20344;-73
2022/10/02 06:05:00;;;;;;;4.55;1.83;;;18.80;99.90;;;;;;4142191;28;20264;-73
2022/10/02 06:07:07;;;;;;;4.55;2.30;;;18.80;99.90;;;;;;4145345;28;20220;-73
2022/10/02 06:09:15;;;;;;;4.25;1.80;;;18.80;99.90;;;;;;4144367;28;20673;-74
2022/10/02 06:11:25;;;;;;;5.43;2.15;;;18.80;99.90;;;;;;4138001;28;20669;-73
2022/10/02 06:13:34;;;;;;;6.20;2.20;;;18.80;99.90;;;;;;4137340;28;20218;-73
2022/10/02 06:15:43;;;;;;;6.10;2.28;;;18.80;99.90;;;;;;4140842;28;20263;-73
2022/10/02 06:17:50;;;;;;;4.13;1.88;;;18.80;99.90;;;;;;4144592;28;20264;-73
2022/10/02 06:19:58;;;;;;;4.40;1.83;;;18.80;99.90;;;;;;4144310;28;20650;-73
2022/10/02 06:22:05;;;;;;;2.72;1.50;;;18.80;99.90;;;;;;4138256;28;20217;-73
2022/10/02 06:24:16;;;;;;;4.45;1.98;;;18.80;99.90;;;;;;4122229;28;20741;-73
2022/10/02 06:26:25;;;;;;;4.80;2.17;;;18.80;99.90;;;;;;4129902;28;20332;-73
2022/10/02 06:28:34;;;;;;;4.93;2.00;;;18.80;99.90;;;;;;4140562;28;20225;-73
2022/10/02 06:30:41;;;;;;;5.97;2.22;;;18.80;99.90;;;;;;4145019;28;20224;-73
2022/10/02 06:32:51;;;;;;;6.40;2.05;;;18.80;99.90;;;;;;4136471;28;20220;-73
2022/10/02 06:34:53;;;;;;;4.63;2.00;;;18.80;99.90;;;;;;4148337;28;20278;-73
2022/10/02 06:37:21;;;;;;;4.35;2.08;;;18.80;99.90;;;;;;4141128;28;20225;-73
2022/10/02 06:39:47;;;;;;;4.22;2.20;;;18.80;99.90;;;;;;4146075;28;20228;-73
2022/10/02 06:42:00;;;;;;;4.13;1.70;;;18.80;99.90;;;;;;4146594;28;20208;-73
2022/10/02 06:44:15;;;;;;;5.85;1.60;;;18.80;99.90;;;;;;4148572;28;20229;-73
2022/10/02 06:46:27;;;;;;;4.90;1.98;;;18.80;99.90;;;;;;4147962;28;20308;-73
2022/10/02 06:48:39;;;;;;;4.13;1.70;;;18.80;99.90;;;;;;4147372;28;20217;-74
2022/10/02 06:50:57;;;;;;;4.93;2.03;;;18.80;99.90;;;;;;4147321;28;20928;-73
2022/10/02 06:53:11;;;;;;;4.88;1.52;;;18.80;99.90;;;;;;4140547;28;20241;-73
2022/10/02 06:55:27;;;;;;;4.57;1.88;;;18.80;99.90;;;;;;4146367;28;20312;-73
2022/10/02 06:57:47;;;;;;;4.60;1.85;;;18.80;99.90;;;;;;4139462;28;20218;-73
2022/10/02 07:00:03;;;;;;;3.13;1.90;;;18.80;99.90;;;;;;4145316;28;20205;-74
2022/10/02 07:02:17;;;;;;;4.32;1.90;;;18.80;99.90;;;;;;4140871;28;20276;-73
2022/10/02 07:04:32;;;;;;;2.78;1.70;;;18.80;99.90;;;;;;4146680;28;20240;-73
2022/10/02 07:06:47;;;;;;;4.38;1.90;;;18.80;99.90;;;;;;4147702;28;20249;-73
2022/10/02 07:09:18;;;;;;;3.65;1.60;;;18.80;99.90;;;;;;4140835;28;20228;-74
2022/10/02 07:11:27;;;;;;;5.43;2.03;;;18.80;99.90;;;;;;4145444;28;20218;-73
2022/10/02 07:13:42;;;;;;;6.40;1.98;;;18.90;99.90;;;;;;4141870;28;20600;-74
2022/10/02 07:16:12;;;;;;;3.90;1.70;;;18.80;99.90;;;;;;4143267;28;20307;-74
2022/10/02 07:18:23;;;;;;;2.97;1.40;;;18.80;99.90;;;;;;4131505;28;20283;-73
2022/10/02 07:20:33;;;;;;;3.88;1.60;;;18.80;99.90;;;;;;4140400;28;20275;-74
2022/10/02 07:22:50;;;;;;;3.45;1.73;;;18.80;99.90;;;;;;4145710;28;20266;-73
2022/10/02 07:25:06;;;;;;;6.95;2.10;;;18.80;99.90;;;;;;4145461;28;20283;-73
2022/10/02 07:27:14;;;;;;;4.55;2.08;;;18.80;99.90;;;;;;4140509;28;20212;-73
2022/10/02 07:29:29;;;;;;;4.22;1.65;;;18.80;99.90;;;;;;4140007;28;20263;-73
2022/10/02 07:31:40;;;;;;;3.83;1.77;;;18.80;99.90;;;;;;4144691;28;20217;-73
2022/10/02 07:33:55;;;;;;;4.65;2.20;;;18.80;99.90;;;;;;4139551;28;20213;-73
2022/10/02 07:36:05;;;;;;;3.72;1.70;;;18.90;99.90;;;;;;4139862;28;20213;-73
2022/10/02 07:38:45;;;;;;;3.47;1.50;;;18.80;99.90;;;;;;4145823;28;20208;-73
2022/10/02 07:40:59;;;;;;;4.43;1.90;;;18.80;99.90;;;;;;4139808;28;20267;-73
2022/10/02 07:43:21;;;;;;;4.50;1.75;;;18.80;99.90;;;;;;4147221;28;20283;-73
2022/10/02 07:45:29;;;;;;;5.45;2.17;;;18.80;99.90;;;;;;4144571;28;20217;-73
2022/10/02 07:47:50;;;;;;;4.47;2.08;;;18.90;99.90;;;;;;4141588;28;20221;-72
2022/10/02 07:50:01;;;;;;;4.70;1.60;;;18.80;99.90;;;;;;4149053;28;20264;-72
2022/10/02 07:52:16;;;;;;;4.63;1.70;;;18.80;99.90;;;;;;4147696;28;20302;-73
2022/10/02 07:54:48;;;;;;;4.65;1.50;;;18.80;99.90;;;;;;4147744;28;20678;-74
2022/10/02 07:56:53;;;;;;;2.70;1.60;;;18.80;99.90;;;;;;4139990;28;20217;-73
2022/10/02 07:59:04;;;;;;;3.78;1.83;;;18.90;99.90;;;;;;4146710;28;20221;-73
2022/10/02 08:01:13;;;;;;;4.05;1.70;;;18.90;99.90;;;;;;4146578;28;20685;-73
2022/10/02 08:03:19;;;;;;;4.38;2.10;;;18.90;99.90;;;;;;4147254;28;20275;-73
2022/10/02 08:05:24;;;;;;;4.95;1.70;;;18.90;99.90;;;;;;4147652;28;20904;-73
2022/10/02 08:07:28;;;;;;;4.20;1.88;;;18.90;99.90;;;;;;4147491;28;20221;-73
2022/10/02 08:09:35;;;;;;;4.55;1.92;;;18.90;99.90;;;;;;4146085;28;20213;-74
2022/10/02 08:11:42;;;;;;;4.05;1.92;;;18.90;99.90;;;;;;4147783;28;20263;-74
2022/10/02 08:13:51;;;;;;;5.57;2.33;;;18.90;99.90;;;;;;4147213;28;20700;-73
2022/10/02 08:15:55;;;;;;;3.15;1.50;;;18.90;99.90;;;;;;4146193;28;20216;-73
2022/10/02 08:18:05;;;;;;;3.55;1.70;;;18.90;99.90;;;;;;4144678;28;20213;-74
2022/10/02 08:20:19;;;;;;;4.55;1.77;;;18.90;99.90;;;;;;4145731;28;20225;-74
2022/10/02 08:22:25;;;;;;;3.55;1.92;;;18.90;99.90;;;;;;4146871;28;20217;-73
2022/10/02 08:24:32;;;;;;;3.92;1.55;;;18.90;99.90;;;;;;4146746;28;20291;-73
2022/10/02 08:26:41;;;;;;;3.53;1.75;;;18.90;99.90;;;;;;4146820;28;20282;-73
2022/10/02 08:28:48;;;;;;;4.32;1.70;;;18.90;99.90;;;;;;4146818;28;20220;-73
2022/10/02 08:30:50;;;;;;;3.50;1.27;;;19.00;99.90;;;;;;4146092;28;20271;-73
2022/10/02 08:32:54;;;;;;;4.05;1.90;;;18.90;99.90;;;;;;4141527;28;20217;-74
2022/10/02 08:34:59;;;;;;;4.15;1.70;;;19.00;99.90;;;;;;4146781;28;20229;-73
2022/10/02 08:37:18;;;;;;;4.50;1.70;;;18.90;99.90;;;;;;4146984;28;20745;-74
2022/10/02 08:39:39;;;;;;;4.40;1.80;;;18.90;99.90;;;;;;4146632;28;20216;-74
2022/10/02 08:42:11;;;;;;;4.25;1.88;;;18.90;99.90;;;;;;4146863;28;20221;-74
2022/10/02 08:44:44;;;;;;;3.67;1.98;;;18.90;99.90;;;;;;4139031;28;20287;-74
2022/10/02 08:47:33;;;;;;;3.25;1.58;;;19.00;99.90;;;;;;4143551;28;20225;-73
2022/10/02 08:50:18;;;;;;;2.60;1.42;;;18.90;99.90;;;;;;4142296;28;20260;-73
2022/10/02 08:53:00;;;;;;;4.57;1.80;;;18.90;99.90;;;;;;4077147;29;20240;-74
2022/10/02 08:55:32;;;;;;;2.95;1.25;;;18.90;99.90;;;;;;4078558;29;20295;-74
2022/10/02 08:58:09;;;;;;;4.07;1.50;;;18.90;99.90;;;;;;4101898;28;20221;-73
2022/10/02 09:00:20;;;;;;;4.28;1.70;;;18.90;99.90;;;;;;4136940;28;20216;-73
2022/10/02 09:03:18;;;;;;;3.35;1.65;;;18.90;99.90;;;;;;4138729;28;20621;-73
2022/10/02 09:05:55;;;;;;;3.42;1.67;;;19.00;99.90;;;;;;4142955;28;20240;-74
2022/10/02 09:08:46;;;;;;;3.80;1.65;;;18.90;99.90;;;;;;4144714;28;20263;-73
2022/10/02 09:11:12;;;;;;;2.78;1.27;;;18.90;99.90;;;;;;4145504;28;20221;-73
2022/10/02 09:13:45;;;;;;;3.63;1.52;;;18.90;99.90;;;;;;4104311;28;20578;-74
2022/10/02 09:15:54;;;;;;;3.38;1.88;;;18.90;99.90;;;;;;4145612;28;20275;-74
2022/10/02 09:18:15;;;;;;;3.92;1.45;;;18.90;99.90;;;;;;4146513;28;20216;-73
2022/10/02 09:21:08;;;;;;;3.08;1.70;;;18.90;99.90;;;;;;4145848;28;20220;-73
2022/10/02 09:23:59;;;;;;;4.25;1.70;;;18.90;99.90;;;;;;4143621;28;20285;-73
2022/10/02 09:26:17;;;;;;;3.53;1.42;;;18.90;99.90;;;;;;4144417;28;20209;-73
2022/10/02 09:29:11;;;;;;;2.67;1.05;;;18.90;99.90;;;;;;4144943;28;20221;-74
2022/10/02 09:31:45;;;;;;;3.47;1.52;;;18.90;99.90;;;;;;4078997;29;20267;-73
2022/10/02 09:34:27;;;;;;;2.38;1.50;;;18.90;99.90;;;;;;4080053;29;20267;-74
2022/10/02 09:37:09;;;;;;;3.10;1.38;;;18.90;99.90;;;;;;4079526;29;20278;-73
2022/10/02 09:39:50;;;;;;;3.22;1.80;;;18.90;99.90;;;;;;4078220;29;20219;-74
2022/10/02 09:42:34;;;;;;;2.65;1.15;;;18.90;99.90;;;;;;4080018;29;20212;-72
2022/10/02 09:45:16;;;;;;;2.75;1.55;;;18.90;99.90;;;;;;4079143;29;20243;-73
2022/10/02 09:48:03;;;;;;;3.53;1.70;;;18.90;99.90;;;;;;4055172;29;20669;-73
2022/10/02 09:51:00;;;;;;;3.63;1.60;;;18.90;99.90;;;;;;4079465;29;20212;-73
2022/10/02 09:53:37;;;;;;;2.28;1.20;;;18.90;99.90;;;;;;4053085;29;20362;-73
2022/10/02 09:56:14;;;;;;;4.07;1.42;;;18.90;99.90;;;;;;4061937;29;20212;-73
2022/10/02 09:58:39;;;;;;;3.58;1.50;;;18.90;99.90;;;;;;4078119;29;20269;-74
2022/10/02 10:01:13;;;;;;;3.65;1.38;;;18.90;99.90;;;;;;4095069;29;20274;-74
2022/10/02 10:03:55;;;;;;;3.17;1.40;;;18.90;99.90;;;;;;4137020;28;20270;-73
2022/10/02 10:06:26;;;;;;;3.38;1.50;;;18.90;99.90;;;;;;4132578;28;20229;-73
2022/10/02 10:08:46;;;;;;;4.70;1.55;;;18.90;99.90;;;;;;4139637;28;20225;-74
2022/10/02 10:11:01;;;;;;;3.15;1.55;;;18.90;99.90;;;;;;4135827;28;20232;-74
2022/10/02 10:13:42;;;;;;;2.75;1.30;;;18.90;99.90;;;;;;4140525;28;20633;-74
2022/10/02 10:16:29;;;;;;;3.53;1.83;;;18.90;99.90;;;;;;4122706;28;20209;-74
2022/10/02 10:19:01;;;;;;;2.25;1.40;;;18.90;99.90;;;;;;4137086;28;20265;-74
2022/10/02 10:21:35;;;;;;;4.72;1.70;;;18.90;99.90;;;;;;4144393;28;20271;-74
2022/10/02 10:24:07;;;;;;;2.92;1.45;;;18.90;99.90;;;;;;4145647;28;20260;-73
2022/10/02 10:26:36;;;;;;;3.20;1.63;;;18.90;99.90;;;;;;4145799;28;20229;-73
2022/10/02 10:29:11;;;;;;;2.60;1.50;;;18.90;99.90;;;;;;4145758;28;20313;-74
2022/10/02 10:31:47;;;;;;;2.38;1.40;;;18.90;99.90;;;;;;4122736;28;20221;-73
2022/10/02 10:34:23;;;;;;;3.20;1.70;;;18.90;99.90;;;;;;4129084;28;20217;-73
2022/10/02 10:39:33;;;;;;;3.50;1.70;;;18.90;99.90;;;;;;4137479;28;20193;-74
2022/10/02 10:42:23;;;;;;;2.67;1.60;;;19.00;99.90;;;;;;4131699;28;20221;-74
2022/10/02 10:44:48;;;;;;;2.80;1.52;;;19.00;99.90;;;;;;4145280;28;20263;-73
2022/10/02 10:47:18;;;;;;;3.72;1.50;;;18.90;99.90;;;;;;4139427;28;20937;-74
2022/10/02 10:49:54;;;;;;;3.63;1.50;;;19.00;99.90;;;;;;4138829;28;20241;-74
2022/10/02 10:52:10;;;;;;;3.50;1.58;;;19.00;99.90;;;;;;4144424;28;20232;-74
2022/10/02 10:54:39;;;;;;;2.88;1.50;;;19.00;99.90;;;;;;4144513;28;20217;-74
2022/10/02 10:56:44;;;;;;;4.22;1.73;;;19.00;99.90;;;;;;4142409;28;20221;-74
2022/10/02 10:59:07;;;;;;;3.20;1.50;;;19.00;99.90;;;;;;4146764;28;20217;-73
2022/10/02 11:01:17;;;;;;;3.65;1.73;;;19.00;99.90;;;;;;4145170;28;20279;-74
2022/10/02 11:03:50;;;;;;;2.95;1.50;;;19.00;99.90;;;;;;4144129;28;20218;-73
2022/10/02 11:06:29;;;;;;;2.75;1.55;;;19.00;99.90;;;;;;4145006;28;20244;-74
2022/10/02 11:09:00;;;;;;;3.33;1.52;;;19.10;99.90;;;;;;4144928;28;20229;-74
2022/10/02 11:11:09;;;;;;;3.55;1.35;;;19.00;99.90;;;;;;4132038;28;20217;-74
2022/10/02 11:13:19;;;;;;;4.72;1.65;;;19.00;99.90;;;;;;4144437;28;20217;-74
2022/10/02 11:15:42;;;;;;;2.38;1.48;;;19.10;99.90;;;;;;4144109;28;20602;-74
2022/10/02 11:18:02;;;;;;;3.42;1.52;;;19.00;99.90;;;;;;4142285;28;20217;-74
2022/10/02 11:20:21;;;;;;;3.50;1.48;;;19.00;99.90;;;;;;4145251;28;20217;-74
2022/10/02 11:22:56;;;;;;;2.10;1.35;;;19.00;99.90;;;;;;4147845;28;20295;-74
2022/10/02 11:25:15;;;;;;;2.33;1.40;;;19.00;99.90;;;;;;4148117;28;20225;-74
2022/10/02 11:27:33;;;;;;;2.65;1.50;;;19.00;99.90;;;;;;4145575;28;20225;-74
2022/10/02 11:30:03;;;;;;;1.77;1.25;;;19.10;99.90;;;;;;4148024;28;20268;-74
2022/10/02 11:32:27;;;;;;;2.40;1.40;;;19.10;99.90;;;;;;4141956;28;20217;-74
2022/10/02 11:34:46;;;;;;;3.15;1.45;;;19.10;99.90;;;;;;4146824;28;20216;-74
2022/10/02 11:37:12;;;;;;;3.90;2.10;;;19.10;99.90;;;;;;4147527;28;20248;-73
2022/10/02 11:39:16;;;;;;;4.55;1.60;;;19.10;99.90;;;;;;4146429;28;20225;-74
2022/10/02 11:41:32;;;;;;;3.22;1.38;;;19.10;99.90;;;;;;4141190;28;20221;-74
2022/10/02 11:44:00;;;;;;;3.35;1.70;;;19.10;99.90;;;;;;4146910;28;20267;-74
2022/10/02 11:46:36;;;;;;;3.28;1.63;;;19.10;99.90;;;;;;4139274;28;20283;-74
2022/10/02 11:49:14;;;;;;;2.95;1.45;;;19.00;99.90;;;;;;4146279;28;20291;-74
2022/10/02 11:51:46;;;;;;;3.08;1.52;;;19.10;99.90;;;;;;4140123;28;20221;-74